• Join FlightAware (Why Join?)
  • Login
  • US Flag 
12:34AM EDT


 

Airport Tracker/Info


-or-


 

Live Flight TrackerFlight Track Log ✈ BJS535 ✈ 06-Jul-2013 ✈ KDTS - KPDK

Flight Track Log - Related Links

Times and Time Zones

All times are in EDT time to prevent confusion due to time zone crossing. See the BJS535 flight status page for this flight to view local times or setup timezone preferences in your user account.

Time Position Orientation Groundspeed Altitude Reporting Facility
EDT Latitude Longitude Course Direction KTS MPH feet Rate Location/Type
05:20PM 30.4756 -86.5319 10° North 234 269 5,400  Level Jacksonville Center
05:21PM 30.5464 -86.5394 355° North 241 277 27,000 4,200 Climbing Jacksonville Center
05:22PM 30.6233 -86.5425 358° North 252 290 13,900 -5,160 Descending Jacksonville Center
05:23PM 30.7178 -86.5267 North 314 361 16,700 2,700 Climbing Jacksonville Center
05:24PM 30.8069 -86.4794 24° Northeast 328 377 19,300 2,400 Climbing Jacksonville Center
05:25PM 31.0458 -86.6108 10° North  Level FlightAware Approximate
05:25PM 30.8958 -86.4319 25° Northeast 348 400 21,500  Level Jacksonville Center
05:26PM 30.9978 -86.3728 26° Northeast 378 435 23,700 1,680 Climbing Jacksonville Center
05:27PM 31.1078 -86.3136 25° Northeast 411 473 24,900 420 Climbing Jacksonville Center
05:29PM 31.3231 -86.1925 26° Northeast 473 544 25,000  Climbing Atlanta Center
05:30PM 31.4411 -86.1272 25° Northeast 467 537 25,000  Level Atlanta Center
05:31PM 31.5589 -86.0592 26° Northeast 467 537 25,000  Level Atlanta Center
05:32PM 31.6706 -85.9983 25° Northeast 462 532 25,000  Level Atlanta Center
05:33PM 31.7886 -85.9300 26° Northeast 436 502 25,000  Level Atlanta Center
05:34PM 31.8939 -85.8711 25° Northeast 418 481 25,000  Level Atlanta Center
05:35PM 31.9989 -85.8119 26° Northeast 418 481 25,000  Level Atlanta Center
05:36PM 32.1064 -85.7478 27° Northeast 418 481 25,000 -540 Level Atlanta Center
05:37PM 32.2136 -85.6861 26° Northeast 423 487 24,000 -540 Descending Atlanta Center
05:38PM 32.3250 -85.6242 25° Northeast 428 493 24,000  Level Atlanta Center
05:39PM 32.4322 -85.5647 25° Northeast 428 493 24,000  Level Atlanta Center
05:40PM 32.5375 -85.5000 27° Northeast 428 493 24,000  Level Atlanta Center
05:41PM 32.6467 -85.4450 23° Northeast 422 486 24,000 -60 Level Atlanta Center
05:42PM 32.7475 -85.3800 28° Northeast 417 480 23,900 -1,440 Descending Atlanta Center
05:43PM 32.8547 -85.3172 26° Northeast 417 480 21,200 -2,700 Descending Atlanta Center
05:44PM 32.9575 -85.2594 25° Northeast 417 480 18,600 -2,400 Descending Atlanta Center
05:45PM 33.0561 -85.2061 24° Northeast 401 461 16,400 -2,340 Descending Atlanta Center
05:46PM 33.1525 -85.1778 14° North 368 423 14,000 -2,400 Descending Atlanta Center
05:47PM 33.2467 -85.1517 13° North 355 409 11,700 -1,860 Descending Atlanta Center
05:48PM 33.3344 -85.1378 North 330 380 10,300 -1,680 Descending Atlanta Center
05:49PM 33.4092 -85.1736 338° Northwest 311 358 8,400 -1,860 Descending Atlanta Center
05:50PM 33.4861 -85.2169 335° Northwest 317 365 6,600 -1,500 Descending Atlanta Center
05:51PM 33.5692 -85.2456 344° North 311 358 5,400 -1,200 Descending Atlanta Center
05:52PM 33.6528 -85.2392 North 300 345 4,200 -720 Descending Atlanta Center
05:53PM 33.7261 -85.2128 17° North 286 329 4,000 -120 Descending Atlanta Center
05:54PM 33.8017 -85.1586 31° Northeast 274 315 4,000  Level Atlanta Center
05:55PM 33.8669 -85.1044 35° Northeast 286 329 4,000  Level Atlanta Center
05:56PM 33.8833 -84.9667 82° East 231 266 4,000  Level Atlanta TRACON
05:57PM 33.8667 -84.9000 107° East 212 244 4,000 -480 Level Atlanta TRACON
05:58PM 33.8667 -84.8333 90° East 209 241 3,200 -540 Descending Atlanta TRACON
05:59PM 33.8667 -84.7667 90° East 210 242 3,000 -120 Descending Atlanta TRACON
06:00PM 33.8833 -84.7000 73° East 206 237 3,000  Level Atlanta TRACON
06:01PM 33.8833 -84.6333 90° East 217 250 3,000  Level Atlanta TRACON
06:02PM 33.9167 -84.5667 59° Northeast 218 251 3,000  Level Atlanta TRACON
06:03PM 33.9333 -84.5000 73° East 214 246 3,000  Level Atlanta TRACON
06:04PM 33.9333 -84.4333 90° East 211 243 3,000  Level Atlanta TRACON
06:05PM 33.9167 -84.3833 112° Southeast 203 234 3,000 -120 Level Atlanta TRACON
06:06PM 33.9667 -84.3500 29° Northeast 171 197 2,800 -120 Descending Atlanta TRACON
06:07PM 33.9500 -84.3167 121° Southeast 144 166 2,800 -180 Level Atlanta TRACON
06:08PM 33.9333 -84.2833 121° Southeast 152 175 2,500 -420 Descending Atlanta TRACON
06:10PM 33.8756 -84.3020 195° South  Level Estimated
06:17PM 33.8756 -84.3020 195° South  Level Estimated
06:18PM 33.8756 -84.3020 195° South  Level Estimated